Time;durP1;ratioP1;P1;durP2;ratioP2;P2;SDS_P1;SDS_P2;PMS_P1;PMS_P2;Temp;Humidity;BMP_temperature;BMP_pressure;BME280_temperature;BME280_humidity;BME280_pressure;Samples;Min_cycle;Max_cycle;Signal;HPM_P1;HPM_P2
2021/01/18 00:00:52;;;;;;;5.03;2.63;;;;;;;-2.60;60.36;99156.97;5093275;28;20047;-60
2021/01/18 00:03:17;;;;;;;4.60;2.70;;;;;;;-2.54;59.75;99163.88;5092528;28;20496;-60
2021/01/18 00:05:43;;;;;;;10.07;3.87;;;;;;;-2.63;59.84;99159.34;5090752;28;20044;-60
2021/01/18 00:08:08;;;;;;;13.20;4.77;;;;;;;-2.58;59.55;99162.91;5093920;28;20464;-60
2021/01/18 00:10:33;;;;;;;3.93;2.40;;;;;;;-2.54;59.61;99168.88;5093189;28;20024;-61
2021/01/18 00:12:59;;;;;;;5.57;2.60;;;;;;;-2.62;60.42;99165.22;5095454;28;20447;-61
2021/01/18 00:15:25;;;;;;;6.10;2.90;;;;;;;-2.61;60.59;99167.78;5095975;28;20020;-61
2021/01/18 00:17:51;;;;;;;8.37;4.67;;;;;;;-2.62;60.75;99163.56;5095557;28;20158;-61
2021/01/18 00:20:20;;;;;;;6.23;3.20;;;;;;;-2.56;60.39;99166.34;5096136;28;20020;-61
2021/01/18 00:22:47;;;;;;;5.37;3.03;;;;;;;-2.51;60.76;99164.03;5094592;28;20024;-61
2021/01/18 00:25:17;;;;;;;6.40;3.80;;;;;;;-2.44;60.77;99163.47;5095622;28;20027;-61
2021/01/18 00:27:44;;;;;;;5.33;3.70;;;;;;;-2.49;60.82;99169.94;5092161;28;20016;-61
2021/01/18 00:30:11;;;;;;;5.43;2.93;;;;;;;-2.54;60.87;99161.34;5090923;28;20028;-61
2021/01/18 00:32:39;;;;;;;5.27;2.53;;;;;;;-2.53;61.43;99166.47;5075398;28;20055;-62
2021/01/18 00:35:06;;;;;;;4.97;2.87;;;;;;;-2.38;60.99;99164.56;5075323;28;20466;-61
2021/01/18 00:37:31;;;;;;;9.87;3.53;;;;;;;-2.40;60.80;99167.81;5094172;28;20032;-61
2021/01/18 00:39:57;;;;;;;4.27;2.63;;;;;;;-2.42;61.07;99166.91;5093540;28;20117;-62
2021/01/18 00:42:22;;;;;;;3.37;2.93;;;;;;;-2.41;61.07;99168.59;5094943;28;20029;-61
2021/01/18 00:44:48;;;;;;;6.97;3.73;;;;;;;-2.35;60.69;99176.38;5094984;28;20070;-63
2021/01/18 00:47:14;;;;;;;3.57;2.53;;;;;;;-2.38;60.99;99178.78;5094777;28;20023;-63
2021/01/18 00:49:41;;;;;;;4.40;2.60;;;;;;;-2.39;60.62;99177.94;5095199;28;20107;-62
2021/01/18 00:52:06;;;;;;;4.50;2.87;;;;;;;-2.43;60.85;99176.09;5094295;28;20051;-62
2021/01/18 00:54:32;;;;;;;4.20;2.53;;;;;;;-2.39;60.48;99172.91;5095063;28;20024;-62
2021/01/18 00:56:57;;;;;;;5.43;2.47;;;;;;;-2.35;60.84;99183.91;5094287;28;20067;-63
2021/01/18 00:59:23;;;;;;;5.30;2.90;;;;;;;-2.41;59.93;99171.09;5094891;28;20079;-62
2021/01/18 01:01:48;;;;;;;5.70;3.00;;;;;;;-2.38;60.55;99172.09;5093967;28;20047;-62
2021/01/18 01:04:13;;;;;;;5.73;3.00;;;;;;;-2.35;60.85;99172.22;5094760;28;20028;-61
2021/01/18 01:06:39;;;;;;;4.67;2.27;;;;;;;-2.34;60.95;99170.59;5093798;28;20024;-61
2021/01/18 01:09:05;;;;;;;5.87;2.93;;;;;;;-2.37;61.30;99175.47;5095725;28;20028;-62
2021/01/18 01:11:31;;;;;;;5.40;3.23;;;;;;;-2.29;60.96;99169.09;5093621;28;20318;-61
2021/01/18 01:13:56;;;;;;;4.80;3.10;;;;;;;-2.36;60.85;99178.03;5095619;28;20444;-62
2021/01/18 01:16:22;;;;;;;6.20;3.57;;;;;;;-2.37;60.99;99167.94;5092968;28;20035;-62
2021/01/18 01:18:47;;;;;;;6.67;3.53;;;;;;;-2.44;61.30;99163.47;5095214;28;20387;-61
2021/01/18 01:21:13;;;;;;;4.70;3.30;;;;;;;-2.39;61.38;99174.56;5094093;28;20032;-62
2021/01/18 01:23:38;;;;;;;6.23;3.40;;;;;;;-2.36;61.06;99165.47;5074384;28;20020;-61
2021/01/18 01:26:05;;;;;;;7.67;3.87;;;;;;;-2.32;61.46;99157.28;5073874;28;20020;-62
2021/01/18 01:28:30;;;;;;;5.27;2.83;;;;;;;-2.50;62.07;99154.03;5090813;28;20034;-61
2021/01/18 01:30:56;;;;;;;5.97;3.30;;;;;;;-2.57;62.46;99149.56;5093121;28;20361;-62
2021/01/18 01:33:21;;;;;;;4.93;3.37;;;;;;;-2.47;62.11;99153.31;5093710;28;20099;-62
2021/01/18 01:35:47;;;;;;;5.13;3.17;;;;;;;-2.49;62.17;99148.22;5094406;28;20019;-62
2021/01/18 01:38:12;;;;;;;4.47;2.90;;;;;;;-2.41;62.35;99143.50;5093728;28;20103;-61
2021/01/18 01:40:38;;;;;;;7.70;3.73;;;;;;;-2.40;62.50;99152.75;5094417;28;20452;-61
2021/01/18 01:43:05;;;;;;;8.00;4.03;;;;;;;-2.42;62.20;99145.16;5093676;28;20028;-61
2021/01/18 01:45:30;;;;;;;8.50;3.73;;;;;;;-2.51;62.46;99141.44;5094603;28;20063;-61
2021/01/18 01:47:57;;;;;;;7.70;3.70;;;;;;;-2.45;62.57;99144.16;5093180;28;20047;-61
2021/01/18 01:50:24;;;;;;;7.23;3.73;;;;;;;-2.46;62.75;99138.28;5093074;28;20016;-61
2021/01/18 01:52:55;;;;;;;7.93;4.60;;;;;;;-2.48;63.20;99136.53;5093428;28;20056;-61
2021/01/18 01:55:33;;;;;;;7.53;3.63;;;;;;;-2.40;63.01;99143.56;5093387;28;20568;-61
2021/01/18 01:58:04;;;;;;;8.93;5.00;;;;;;;-2.38;62.52;99133.59;5094822;28;20024;-61
2021/01/18 02:00:37;;;;;;;9.83;4.57;;;;;;;-2.43;63.67;99140.09;5093453;28;20084;-61
2021/01/18 02:03:13;;;;;;;10.47;4.80;;;;;;;-2.40;63.82;99137.69;5074726;28;20028;-60
2021/01/18 02:05:39;;;;;;;;;;;;;;;-2.39;63.44;99140.28;5073103;28;20032;-61
2021/01/18 02:08:07;;;;;;;10.70;4.30;;;;;;;-2.44;63.66;99141.72;5073259;28;20458;-61
2021/01/18 02:10:33;;;;;;;8.60;4.90;;;;;;;-2.42;63.74;99147.66;5073020;28;20028;-60
2021/01/18 02:13:00;;;;;;;9.47;4.57;;;;;;;-2.45;63.55;99135.00;5092517;28;20410;-60
2021/01/18 02:15:45;;;;;;;9.97;5.53;;;;;;;-2.36;63.43;99137.88;5093761;28;20437;-60
2021/01/18 02:18:37;;;;;;;9.15;4.93;;;;;;;-2.37;63.60;99137.81;5094265;28;20031;-61
2021/01/18 02:21:39;;;;;;;11.90;5.30;;;;;;;-2.31;64.11;99133.03;5092582;28;20019;-61
2021/01/18 02:24:26;;;;;;;9.43;4.93;;;;;;;-2.37;64.00;99140.31;5093881;28;20020;-60
2021/01/18 02:27:17;;;;;;;10.23;4.83;;;;;;;-2.37;63.73;99140.31;5092684;28;20024;-61
2021/01/18 02:30:19;;;;;;;6.97;4.60;;;;;;;-2.42;64.23;99124.22;5094068;28;20030;-61
2021/01/18 02:33:23;;;;;;;11.30;4.70;;;;;;;-2.39;64.64;99131.88;5092911;28;20362;-61
2021/01/18 02:36:11;;;;;;;9.67;5.40;;;;;;;-2.38;64.47;99129.41;5093251;28;20024;-61
2021/01/18 02:38:42;;;;;;;11.07;6.20;;;;;;;-2.36;64.63;99126.97;5092206;28;20195;-61
2021/01/18 02:41:42;;;;;;;12.37;6.07;;;;;;;-2.29;64.54;99120.56;5093254;28;20039;-60
2021/01/18 02:44:13;;;;;;;14.53;6.37;;;;;;;-2.34;65.48;99118.72;5092672;28;20416;-60
2021/01/18 02:46:40;;;;;;;9.83;6.00;;;;;;;-2.44;65.53;99125.81;5092504;28;20116;-60
2021/01/18 02:49:06;;;;;;;13.07;7.27;;;;;;;-2.54;66.18;99114.53;5092722;28;20056;-60
2021/01/18 02:51:38;;;;;;;13.97;6.77;;;;;;;-2.45;65.51;99117.41;5094537;28;20357;-60
2021/01/18 02:54:03;;;;;;;14.37;7.03;;;;;;;-2.56;66.09;99106.09;5096413;28;20035;-60
2021/01/18 02:56:34;;;;;;;16.60;7.43;;;;;;;-2.44;66.27;99113.25;5096932;28;20096;-60
2021/01/18 02:59:01;;;;;;;13.43;7.53;;;;;;;-2.43;66.23;99109.97;5096765;28;20078;-61
2021/01/18 03:01:52;;;;;;;14.77;6.83;;;;;;;-2.39;66.68;99110.16;5097070;28;20036;-60
2021/01/18 03:04:25;;;;;;;14.33;7.37;;;;;;;-2.39;66.65;99111.78;5096593;28;20036;-61
2021/01/18 03:07:05;;;;;;;16.10;7.57;;;;;;;-2.41;67.25;99108.34;5097409;28;20039;-61
2021/01/18 03:09:46;;;;;;;15.00;6.73;;;;;;;-2.34;67.32;99108.69;5096644;28;20484;-61
2021/01/18 03:12:12;;;;;;;16.77;7.77;;;;;;;-2.39;66.94;99114.31;5080841;28;20027;-60
2021/01/18 03:14:45;;;;;;;14.53;7.83;;;;;;;-2.29;66.66;99110.50;5096406;28;20452;-60
2021/01/18 03:17:17;;;;;;;16.33;8.00;;;;;;;-2.33;66.71;99110.38;5096509;28;20024;-60
2021/01/18 03:19:44;;;;;;;17.20;7.87;;;;;;;-2.35;67.65;99113.63;5096200;28;20032;-60
2021/01/18 03:22:21;;;;;;;13.63;7.53;;;;;;;-2.29;67.28;99113.03;5095906;28;20020;-61
2021/01/18 03:24:46;;;;;;;14.53;8.57;;;;;;;-2.29;67.31;99111.34;5096291;28;20027;-62
2021/01/18 03:27:13;;;;;;;23.20;8.90;;;;;;;-2.26;67.34;99108.13;5096882;28;20120;-61
2021/01/18 03:29:38;;;;;;;17.70;9.13;;;;;;;-2.33;67.71;99102.84;5096127;28;20475;-61
2021/01/18 03:32:06;;;;;;;17.60;8.40;;;;;;;-2.29;67.76;99098.78;5096106;28;20063;-60
2021/01/18 03:34:32;;;;;;;18.83;8.27;;;;;;;-2.37;67.80;99107.69;5096237;28;20027;-61
2021/01/18 03:36:57;;;;;;;18.10;9.17;;;;;;;-2.42;68.72;99102.47;5095766;28;20096;-61
2021/01/18 03:39:22;;;;;;;21.17;10.13;;;;;;;-2.34;68.62;99100.28;5095787;28;20099;-60
2021/01/18 03:41:48;;;;;;;17.90;9.30;;;;;;;-2.35;68.81;99106.09;5095334;28;20036;-60
2021/01/18 03:44:13;;;;;;;18.93;10.07;;;;;;;-2.36;69.09;99104.38;5096485;28;20399;-62
2021/01/18 03:46:43;;;;;;;19.13;9.57;;;;;;;-2.24;69.21;99104.00;5094501;28;20410;-62
2021/01/18 03:49:09;;;;;;;25.70;10.50;;;;;;;-2.29;69.67;99101.28;5096318;28;20034;-62
2021/01/18 03:51:34;;;;;;;20.03;9.80;;;;;;;-2.28;69.83;99092.97;5095380;28;20415;-62
2021/01/18 03:53:59;;;;;;;21.23;9.53;;;;;;;-2.33;70.26;99094.44;5096338;28;20043;-62
2021/01/18 03:56:25;;;;;;;22.50;10.47;;;;;;;-2.29;70.31;99097.97;5095447;28;20020;-62
2021/01/18 03:58:50;;;;;;;25.63;11.60;;;;;;;-2.30;70.36;99099.59;5095145;28;20444;-62
2021/01/18 04:01:16;;;;;;;23.73;11.07;;;;;;;-2.26;70.89;99101.44;5095529;28;20027;-62
2021/01/18 04:03:41;;;;;;;18.90;9.37;;;;;;;-2.24;70.58;99099.81;5094756;28;20020;-62
2021/01/18 04:06:07;;;;;;;17.40;8.53;;;;;;;-2.24;69.90;99096.47;5095095;28;20020;-61
2021/01/18 04:08:32;;;;;;;14.87;6.70;;;;;;;-2.39;68.41;99105.13;5095468;28;20149;-62
2021/01/18 04:10:57;;;;;;;16.40;7.20;;;;;;;-2.43;68.75;99094.91;5094685;28;20051;-62
2021/01/18 04:13:23;;;;;;;12.67;6.73;;;;;;;-2.51;69.37;99093.75;5096291;28;20024;-62
2021/01/18 04:15:48;;;;;;;13.40;7.17;;;;;;;-2.54;69.02;99107.00;5095360;28;20139;-61
2021/01/18 04:18:14;;;;;;;12.00;6.50;;;;;;;-2.56;69.02;99097.72;5094784;28;20032;-61
2021/01/18 04:20:39;;;;;;;15.63;6.73;;;;;;;-2.68;69.87;99095.59;5095223;28;20042;-61
2021/01/18 04:23:04;;;;;;;11.43;6.03;;;;;;;-2.62;69.93;99099.97;5094280;28;20514;-62
2021/01/18 04:25:31;;;;;;;12.20;6.13;;;;;;;-2.65;69.90;99102.38;5094284;28;20063;-62
2021/01/18 04:27:59;;;;;;;11.97;5.83;;;;;;;-2.58;69.17;99096.78;5094622;28;20028;-62
2021/01/18 04:30:27;;;;;;;12.43;6.10;;;;;;;-2.56;68.53;99103.59;5094686;28;20448;-62
2021/01/18 04:32:54;;;;;;;13.17;7.00;;;;;;;-2.79;68.74;99097.66;5094584;28;20028;-61
2021/01/18 04:35:19;;;;;;;15.70;7.53;;;;;;;-2.76;68.60;99097.75;5093357;28;20403;-62
2021/01/18 04:37:45;;;;;;;15.80;6.63;;;;;;;-2.71;68.42;99094.56;5095025;28;20039;-62
2021/01/18 04:40:11;;;;;;;35.50;13.40;;;;;;;-2.77;68.70;99087.69;5092925;28;20047;-62
2021/01/18 04:42:36;;;;;;;31.93;12.03;;;;;;;-2.71;68.92;99094.56;5095366;28;20012;-62
2021/01/18 04:45:02;;;;;;;15.47;7.27;;;;;;;-2.80;68.86;99103.44;5094723;28;20399;-62
2021/01/18 04:47:29;;;;;;;10.70;5.00;;;;;;;-2.78;68.01;99104.38;5095111;28;20032;-62
2021/01/18 04:49:59;;;;;;;8.60;4.60;;;;;;;-2.81;68.44;99104.28;5093499;28;20028;-62
2021/01/18 04:52:43;;;;;;;11.27;5.40;;;;;;;-2.83;68.57;99103.34;5094170;28;20028;-62
2021/01/18 04:55:46;;;;;;;8.17;4.40;;;;;;;-2.80;67.91;99102.63;5094510;28;20050;-62
2021/01/18 04:58:19;;;;;;;9.60;4.67;;;;;;;-2.83;68.61;99108.34;5093733;28;20024;-62
2021/01/18 05:00:48;;;;;;;10.17;4.13;;;;;;;-2.89;67.83;99104.75;5094131;28;20034;-62
2021/01/18 05:03:15;;;;;;;8.30;4.50;;;;;;;-2.94;68.15;99109.56;5093708;28;20505;-62
2021/01/18 05:06:05;;;;;;;6.77;4.20;;;;;;;-2.87;68.30;99104.00;5094219;28;20089;-62
2021/01/18 05:09:18;;;;;;;8.37;4.57;;;;;;;-2.80;68.53;99110.16;5094980;28;20305;-62
2021/01/18 05:11:47;;;;;;;7.57;4.77;;;;;;;-2.81;67.38;99105.91;5093719;28;20016;-61
2021/01/18 05:14:14;;;;;;;8.03;4.60;;;;;;;-2.81;67.69;99105.91;5072426;28;20066;-61
2021/01/18 05:16:44;;;;;;;10.20;4.80;;;;;;;-2.74;67.61;99107.00;5075828;28;20774;-62
2021/01/18 05:19:14;;;;;;;9.73;4.87;;;;;;;-2.79;67.56;99102.66;5094626;28;20080;-61
2021/01/18 05:21:41;;;;;;;10.73;5.33;;;;;;;-2.80;68.76;99108.47;5093197;28;20468;-62
2021/01/18 05:24:07;;;;;;;9.67;4.67;;;;;;;-2.81;69.12;99111.78;5095109;28;20048;-62
2021/01/18 05:26:33;;;;;;;9.50;5.23;;;;;;;-2.81;68.78;99109.28;5093809;28;20157;-62
2021/01/18 05:28:58;;;;;;;10.77;4.63;;;;;;;-2.74;68.43;99110.38;5093661;28;20065;-62
2021/01/18 05:31:26;;;;;;;11.63;5.07;;;;;;;-2.68;68.47;99109.78;5093784;28;20440;-62
2021/01/18 05:33:53;;;;;;;9.17;6.03;;;;;;;-2.66;68.63;99103.16;5094288;28;20062;-62
2021/01/18 05:36:44;;;;;;;18.73;5.73;;;;;;;-2.78;67.89;99111.06;5094172;28;20154;-62
2021/01/18 05:39:14;;;;;;;10.43;5.27;;;;;;;-2.98;68.23;99119.41;5093133;28;20085;-62
2021/01/18 05:41:41;;;;;;;11.73;5.30;;;;;;;-2.79;68.08;99106.81;5093630;28;20039;-62
2021/01/18 05:44:07;;;;;;;11.27;5.90;;;;;;;-2.79;67.56;99101.81;5094158;28;20043;-61
2021/01/18 05:46:34;;;;;;;11.20;5.27;;;;;;;-2.90;68.02;99101.38;5093641;28;20069;-62
2021/01/18 05:49:09;;;;;;;9.60;5.70;;;;;;;-2.97;67.46;99106.91;5093714;28;20080;-61
2021/01/18 05:51:35;;;;;;;12.82;5.25;;;;;;;-2.98;67.92;99110.25;5093438;28;20024;-62
2021/01/18 05:54:03;;;;;;;12.77;5.73;;;;;;;-2.84;68.63;99100.75;5091954;28;20478;-61
2021/01/18 05:56:41;;;;;;;11.30;5.20;;;;;;;-2.91;68.16;99111.34;5093956;28;20075;-61
2021/01/18 05:59:18;;;;;;;13.23;6.30;;;;;;;-3.00;68.36;99118.47;5094022;28;20148;-61
2021/01/18 06:01:44;;;;;;;11.87;5.67;;;;;;;-2.96;68.16;99116.16;5088380;28;20020;-61
2021/01/18 06:04:12;;;;;;;11.87;5.77;;;;;;;-2.90;68.31;99113.06;5094404;28;20104;-61
2021/01/18 06:06:38;;;;;;;14.27;6.27;;;;;;;-3.02;68.62;99118.44;5094476;28;20107;-61
2021/01/18 06:09:04;;;;;;;13.80;5.90;;;;;;;-2.88;68.09;99104.78;5093615;28;20028;-62
2021/01/18 06:11:29;;;;;;;10.53;6.37;;;;;;;-2.88;67.81;99117.34;5094648;28;20039;-61
2021/01/18 06:14:02;;;;;;;12.23;6.27;;;;;;;-2.95;67.72;99115.38;5094021;28;20352;-61
2021/01/18 06:16:29;;;;;;;12.30;6.13;;;;;;;-2.86;68.35;99115.75;5092831;28;20035;-62
2021/01/18 06:19:08;;;;;;;11.20;6.20;;;;;;;-2.86;68.74;99114.91;5092996;28;20028;-62
2021/01/18 06:21:41;;;;;;;16.03;6.40;;;;;;;-2.83;69.22;99108.34;5093918;28;20473;-61
2021/01/18 06:24:14;;;;;;;13.97;6.20;;;;;;;-2.77;68.68;99126.19;5091544;28;20046;-62
2021/01/18 06:26:39;;;;;;;8.63;5.37;;;;;;;-2.79;68.18;99117.72;5094873;28;20028;-61
2021/01/18 06:29:05;;;;;;;14.53;6.50;;;;;;;-2.81;69.00;99119.31;5097007;28;20036;-59
2021/01/18 06:31:43;;;;;;;9.87;5.63;;;;;;;-2.74;69.16;99115.41;5095808;28;20024;-60
2021/01/18 06:34:09;;;;;;;12.20;6.17;;;;;;;-2.80;68.31;99122.69;5091392;28;20039;-63
2021/01/18 06:36:36;;;;;;;12.97;6.67;;;;;;;-2.75;68.61;99121.19;5083645;28;20028;-61
2021/01/18 06:39:08;;;;;;;9.90;6.07;;;;;;;-2.80;68.60;99118.50;5097605;28;20104;-63
2021/01/18 06:41:35;;;;;;;16.03;6.70;;;;;;;-2.95;69.40;99125.41;5096037;28;20031;-60
2021/01/18 06:44:02;;;;;;;10.63;6.10;;;;;;;-2.85;70.43;99124.16;5096248;28;20028;-61
2021/01/18 06:46:30;;;;;;;13.67;6.43;;;;;;;-2.78;69.67;99121.94;5095721;28;20024;-62
2021/01/18 06:48:56;;;;;;;13.53;7.10;;;;;;;-2.82;69.14;99124.25;5097357;28;20032;-61
2021/01/18 06:51:24;;;;;;;10.03;6.10;;;;;;;-2.87;68.63;99128.22;5091721;28;20438;-61
2021/01/18 06:53:51;;;;;;;15.43;6.97;;;;;;;-2.75;68.87;99123.72;5089029;28;20028;-61
2021/01/18 06:56:22;;;;;;;12.40;5.63;;;;;;;-2.60;68.55;99128.50;5096190;28;20035;-62
2021/01/18 06:59:09;;;;;;;21.77;6.50;;;;;;;-2.70;68.70;99131.44;5095780;28;20035;-63
2021/01/18 07:01:39;;;;;;;14.53;7.53;;;;;;;-2.63;68.45;99128.41;5096515;28;20038;-62
2021/01/18 07:04:14;;;;;;;14.67;7.20;;;;;;;-2.56;68.38;99133.72;5097175;28;20034;-61
2021/01/18 07:06:44;;;;;;;15.52;7.38;;;;;;;-2.42;68.64;99132.59;5096220;28;20034;-62
2021/01/18 07:09:19;;;;;;;12.97;6.87;;;;;;;-2.36;67.75;99127.84;5096155;28;20389;-61
2021/01/18 07:11:45;;;;;;;14.07;7.97;;;;;;;-2.39;67.28;99136.91;5096192;28;20062;-62
2021/01/18 07:14:12;;;;;;;13.33;7.30;;;;;;;-2.29;67.80;99128.09;5097353;28;20048;-62
2021/01/18 07:16:42;;;;;;;16.00;7.50;;;;;;;-2.17;67.17;99131.06;5096034;28;20039;-63
2021/01/18 07:19:08;;;;;;;14.43;7.67;;;;;;;-2.32;66.89;99138.84;5097541;28;20016;-61
2021/01/18 07:22:03;;;;;;;14.13;7.33;;;;;;;-2.14;66.55;99127.03;5095713;28;20028;-62
2021/01/18 07:24:30;;;;;;;15.37;7.63;;;;;;;-2.20;67.27;99135.94;5097223;28;20491;-62
2021/01/18 07:27:06;;;;;;;17.17;7.90;;;;;;;-2.37;66.64;99145.34;5096227;28;20496;-62
2021/01/18 07:29:32;;;;;;;13.80;7.70;;;;;;;-2.18;67.20;99137.75;5097179;28;20107;-61
2021/01/18 07:31:59;;;;;;;15.00;7.20;;;;;;;-2.11;66.44;99137.19;5095935;28;20020;-62
2021/01/18 07:34:26;;;;;;;15.10;8.50;;;;;;;-2.14;66.39;99156.28;5096861;28;20081;-61
2021/01/18 07:37:04;;;;;;;17.90;8.43;;;;;;;-2.13;67.12;99147.97;5095442;28;20039;-62
2021/01/18 07:39:40;;;;;;;14.03;7.50;;;;;;;-2.21;66.92;99146.81;5096508;28;20043;-61
2021/01/18 07:42:29;;;;;;;14.97;7.73;;;;;;;-2.20;66.59;99136.81;5095803;28;20124;-61
2021/01/18 07:45:17;;;;;;;19.47;8.43;;;;;;;-2.45;67.41;99152.56;5095977;28;20066;-61
2021/01/18 07:47:57;;;;;;;16.03;7.77;;;;;;;-2.35;67.05;99148.78;5093496;28;20066;-62
2021/01/18 07:50:30;;;;;;;14.70;7.03;;;;;;;-2.37;68.33;99152.88;5093618;28;20032;-62
2021/01/18 07:52:58;;;;;;;15.47;8.27;;;;;;;-2.35;68.40;99151.28;5090868;28;20107;-62
2021/01/18 07:55:24;;;;;;;18.13;8.47;;;;;;;-2.41;68.22;99156.03;5090398;28;20012;-61
2021/01/18 07:57:50;;;;;;;11.83;6.73;;;;;;;-2.48;68.59;99156.59;5096692;28;20031;-61
2021/01/18 08:00:18;;;;;;;17.03;8.67;;;;;;;-2.33;69.02;99147.16;5092644;28;20024;-61
2021/01/18 08:03:21;;;;;;;18.57;7.97;;;;;;;-2.36;68.68;99157.94;5093557;28;20017;-61
2021/01/18 08:05:48;;;;;;;20.97;8.00;;;;;;;-2.30;69.03;99144.81;5083145;28;20040;-61
2021/01/18 08:08:18;;;;;;;16.87;7.80;;;;;;;-2.24;69.13;99154.19;5095314;28;20024;-60
2021/01/18 08:10:53;;;;;;;21.67;8.77;;;;;;;-2.32;69.37;99157.28;5091359;28;20093;-61
2021/01/18 08:13:40;;;;;;;18.03;8.67;;;;;;;-2.20;69.17;99156.91;5089036;28;20032;-61
2021/01/18 08:16:12;;;;;;;18.67;9.07;;;;;;;-2.17;70.67;99156.19;5090637;28;20035;-61
2021/01/18 08:19:14;;;;;;;19.30;9.30;;;;;;;-2.31;71.44;99155.63;5088696;28;20032;-60
2021/01/18 08:21:45;;;;;;;23.50;8.40;;;;;;;-2.35;72.23;99157.16;5088695;28;20051;-61
2021/01/18 08:24:16;;;;;;;18.53;8.90;;;;;;;-2.29;73.15;99163.22;5094651;28;20330;-61
2021/01/18 08:27:01;;;;;;;24.87;9.70;;;;;;;-2.52;74.68;99157.28;5095123;28;20365;-61
2021/01/18 08:29:45;;;;;;;19.63;10.38;;;;;;;-2.54;75.01;99161.34;5095426;28;20470;-62
2021/01/18 08:32:25;;;;;;;23.17;9.83;;;;;;;-2.51;75.49;99159.88;5095051;28;20110;-61
2021/01/18 08:34:55;;;;;;;17.00;8.87;;;;;;;-2.73;76.27;99169.81;5095683;28;20051;-61
2021/01/18 08:37:23;;;;;;;19.60;9.37;;;;;;;-2.42;76.57;99150.16;5095569;28;20032;-61
2021/01/18 08:39:55;;;;;;;23.20;10.37;;;;;;;-2.56;77.18;99153.78;5094934;28;20048;-61
2021/01/18 08:42:30;;;;;;;23.20;11.67;;;;;;;-2.33;77.42;99160.56;5095197;28;20028;-61
2021/01/18 08:45:27;;;;;;;21.80;10.20;;;;;;;-2.01;76.69;99154.31;5095273;28;20055;-61
2021/01/18 08:47:58;;;;;;;22.23;10.90;;;;;;;-1.80;76.53;99159.31;5094640;28;20028;-61
2021/01/18 08:50:28;;;;;;;21.93;11.10;;;;;;;-1.71;75.65;99158.81;5094996;28;20456;-61
2021/01/18 08:52:56;;;;;;;21.67;9.97;;;;;;;-1.71;74.89;99159.66;5094972;28;20482;-61
2021/01/18 08:55:30;;;;;;;19.63;9.87;;;;;;;-1.81;75.01;99162.63;5094702;28;20024;-61
2021/01/18 08:57:59;;;;;;;17.55;9.30;;;;;;;-1.89;74.96;99161.47;5095139;28;20102;-61
2021/01/18 09:00:48;;;;;;;19.33;8.53;;;;;;;-1.88;74.59;99166.56;5095116;28;20028;-61
2021/01/18 09:03:18;;;;;;;20.40;10.17;;;;;;;-1.86;75.27;99164.09;5094310;28;20024;-61
2021/01/18 09:05:47;;;;;;;21.93;10.03;;;;;;;-1.73;75.16;99167.91;5088217;28;20456;-60
2021/01/18 09:08:17;;;;;;;27.07;11.37;;;;;;;-1.63;75.75;99162.44;5094607;28;20028;-61
2021/01/18 09:10:55;;;;;;;19.23;9.97;;;;;;;-1.50;75.41;99160.47;5094683;28;20391;-61
2021/01/18 09:13:24;;;;;;;21.70;11.57;;;;;;;-1.39;74.51;99165.88;5094496;28;20020;-61
2021/01/18 09:15:51;;;;;;;23.50;10.27;;;;;;;-1.37;74.49;99166.78;5095046;28;20020;-61
2021/01/18 09:18:17;;;;;;;20.23;10.40;;;;;;;-1.41;74.46;99162.44;5094178;28;20028;-61
2021/01/18 09:20:44;;;;;;;21.97;10.40;;;;;;;-1.36;74.42;99166.00;5094694;28;20024;-61
2021/01/18 09:23:11;;;;;;;27.63;11.27;;;;;;;-1.23;73.83;99165.59;5094631;28;20016;-61
2021/01/18 09:25:37;;;;;;;23.33;11.00;;;;;;;-1.25;73.96;99166.38;5094229;28;20024;-61
2021/01/18 09:28:04;;;;;;;22.43;10.97;;;;;;;-1.23;74.21;99173.16;5093654;28;20023;-61
2021/01/18 09:30:30;;;;;;;20.57;9.87;;;;;;;-1.30;74.55;99168.72;5094292;28;20024;-61
2021/01/18 09:32:56;;;;;;;25.17;12.77;;;;;;;-1.42;74.82;99173.31;5093965;28;20032;-61
2021/01/18 09:35:22;;;;;;;28.50;13.07;;;;;;;-1.36;74.25;99176.06;5093675;28;20044;-61
2021/01/18 09:37:49;;;;;;;26.73;11.10;;;;;;;-1.19;74.96;99174.16;5089844;28;20087;-61
2021/01/18 09:40:17;;;;;;;23.30;11.33;;;;;;;-1.08;74.69;99173.72;5092379;28;20035;-61
2021/01/18 09:42:47;;;;;;;20.10;11.20;;;;;;;-1.05;74.33;99167.94;5091548;28;20468;-61
2021/01/18 09:45:14;;;;;;;20.43;10.93;;;;;;;-0.92;74.53;99170.94;5090870;28;20103;-61
2021/01/18 09:47:40;;;;;;;22.90;11.33;;;;;;;-0.68;73.66;99173.41;5090177;28;20376;-62
2021/01/18 09:50:07;;;;;;;22.33;11.27;;;;;;;-0.54;72.34;99161.28;5090606;28;20364;-62
2021/01/18 09:52:37;;;;;;;26.23;13.40;;;;;;;-0.46;72.43;99154.84;5088419;28;20024;-61
2021/01/18 09:55:03;;;;;;;19.40;11.00;;;;;;;-0.34;72.07;99159.44;5088835;28;20039;-61
2021/01/18 09:57:30;;;;;;;19.93;10.87;;;;;;;-0.15;70.72;99166.78;5092027;28;20498;-61
2021/01/18 09:59:56;;;;;;;19.70;10.43;;;;;;;-0.02;70.56;99169.72;5090162;28;20032;-62
2021/01/18 10:02:24;;;;;;;19.27;10.77;;;;;;;0.19;69.39;99171.19;5087203;28;20034;-61
2021/01/18 10:04:52;;;;;;;20.10;10.63;;;;;;;0.34;69.86;99161.59;5090418;28;20035;-62
2021/01/18 10:07:18;;;;;;;20.33;11.40;;;;;;;0.38;68.53;99166.75;5091610;28;20460;-61
2021/01/18 10:09:46;;;;;;;21.60;11.20;;;;;;;0.33;68.00;99163.25;5090592;28;20023;-61
2021/01/18 10:12:13;;;;;;;19.47;10.57;;;;;;;0.58;67.73;99164.81;5092004;28;20036;-62
2021/01/18 10:14:49;;;;;;;20.43;10.13;;;;;;;0.72;66.43;99158.47;5086934;28;20563;-62
2021/01/18 10:17:15;;;;;;;21.13;11.43;;;;;;;0.67;67.38;99156.66;5069816;28;20031;-61
2021/01/18 10:19:41;;;;;;;21.17;10.60;;;;;;;0.54;68.13;99159.63;5070689;28;20028;-61
2021/01/18 10:22:18;;;;;;;19.37;10.87;;;;;;;0.56;67.57;99168.94;5069167;28;20024;-61
2021/01/18 10:24:55;;;;;;;19.93;10.53;;;;;;;0.40;68.13;99169.31;5071402;28;20020;-61
2021/01/18 10:27:28;;;;;;;18.27;10.80;;;;;;;0.07;69.40;99169.16;5071995;28;20024;-61
2021/01/18 10:30:14;;;;;;;22.07;11.23;;;;;;;0.04;69.79;99174.13;5069738;28;20035;-62
2021/01/18 10:32:41;;;;;;;17.92;11.02;;;;;;;-0.09;69.81;99169.50;5071120;28;20031;-61
2021/01/18 10:35:28;;;;;;;19.87;10.60;;;;;;;0.01;70.40;99176.53;5087029;28;20040;-61
2021/01/18 10:38:18;;;;;;;17.47;10.13;;;;;;;-142.25;100.00;58004.16;5070193;28;20032;-63
2021/01/18 10:42:17;;;;;;;21.60;11.30;;;;;;;-142.25;100.00;58004.16;5068571;28;20111;-64
2021/01/18 10:45:49;;;;;;;22.00;11.00;;;;;;;-142.25;100.00;58004.16;5071079;28;20032;-64
2021/01/18 10:49:22;;;;;;;21.10;10.73;;;;;;;-142.25;100.00;58004.16;5070515;28;20078;-63
2021/01/18 10:52:15;;;;;;;20.23;10.50;;;;;;;0.01;70.40;99176.53;5069115;28;20067;-62
2021/01/18 10:55:38;;;;;;;20.30;9.97;;;;;;;-142.25;100.00;58004.16;5070020;28;20043;-61
2021/01/18 10:58:40;;;;;;;22.17;11.80;;;;;;;-142.25;100.00;58004.16;5071500;28;20029;-63
2021/01/18 11:01:31;;;;;;;20.27;10.67;;;;;;;-142.25;100.00;58004.16;5070891;28;21335;-64
2021/01/18 11:04:03;;;;;;;26.03;12.37;;;;;;;-142.25;100.00;58004.16;5071875;28;20100;-64
2021/01/18 11:07:32;;;;;;;20.77;10.43;;;;;;;-142.25;100.00;58004.16;5069815;28;20040;-64
2021/01/18 11:10:56;;;;;;;18.53;9.17;;;;;;;-142.25;100.00;58004.16;5068000;28;20392;-64
2021/01/18 11:14:20;;;;;;;18.77;11.20;;;;;;;-142.25;100.00;58004.16;5072672;28;20043;-64
2021/01/18 11:17:08;;;;;;;20.53;9.43;;;;;;;0.01;70.40;99176.53;5073169;28;20090;-64
2021/01/18 11:20:33;;;;;;;19.23;10.53;;;;;;;-142.25;100.00;58004.16;5070974;28;20036;-64
2021/01/18 11:23:57;;;;;;;24.40;11.70;;;;;;;-142.25;100.00;58004.16;5073790;28;20028;-63
2021/01/18 11:27:22;;;;;;;21.90;9.97;;;;;;;-142.25;100.00;58004.16;5074449;28;20035;-62
2021/01/18 11:30:46;;;;;;;17.00;8.50;;;;;;;-142.25;100.00;58004.16;5075129;28;20032;-62
2021/01/18 11:34:10;;;;;;;21.57;10.30;;;;;;;-142.25;100.00;58004.16;5075136;28;20056;-62
2021/01/18 11:37:35;;;;;;;17.17;9.33;;;;;;;-142.25;100.00;58004.16;5074175;28;20055;-62
2021/01/18 11:40:52;;;;;;;18.10;10.40;;;;;;;-142.25;100.00;58004.16;5073083;28;20056;-62
2021/01/18 11:43:17;;;;;;;;;;;;;;;-0.55;71.39;99147.84;5074588;28;20028;-62
2021/01/18 11:45:43;;;;;;;27.50;11.03;;;;;;;-0.76;72.63;99141.25;5070918;28;19919;-62
2021/01/18 11:48:09;;;;;;;24.30;11.30;;;;;;;-0.69;72.85;99150.72;5068895;28;20566;-62
2021/01/18 11:50:34;;;;;;;22.53;11.33;;;;;;;-0.78;72.64;99143.72;5070205;28;20032;-62
2021/01/18 11:52:59;;;;;;;19.97;10.80;;;;;;;-0.72;72.62;99143.09;5071014;28;20115;-63
2021/01/18 11:55:25;;;;;;;22.00;10.97;;;;;;;-0.72;72.77;99138.06;5072237;28;20449;-62